Time,TemperatureF,DewpointF,PressureIn,WindDirection,WindDirectionDegrees,WindSpeedMPH,WindSpeedGustMPH,Humidity,HourlyPrecipIn,Conditions,Clouds,dailyrainin,SoftwareType,DateUTC
2013-02-05 00:09:00,46.3,41.0,30.08,SW,216,0.0,2.0,81,0.00,,,0.00,weatherlink.com 1.10,2013-02-05 05:09:00,
2013-02-05 00:24:00,46.4,42.0,30.08,SW,216,0.0,0.0,83,0.00,,,0.00,weatherlink.com 1.10,2013-02-05 05:24:00,
2013-02-05 00:39:00,45.9,41.0,30.07,SW,216,0.0,1.0,83,0.00,,,0.00,weatherlink.com 1.10,2013-02-05 05:39:00,
2013-02-05 00:54:00,46.1,42.0,30.06,SW,216,0.0,1.0,84,0.00,,,0.00,weatherlink.com 1.10,2013-02-05 05:54:00,
2013-02-05 01:09:00,45.5,40.0,30.06,SW,216,0.0,1.0,82,0.00,,,0.00,weatherlink.com 1.10,2013-02-05 06:09:00,
2013-02-05 01:24:00,45.6,40.0,30.06,SW,216,0.0,4.0,82,0.00,,,0.00,weatherlink.com 1.10,2013-02-05 06:24:00,
2013-02-05 01:39:00,45.8,41.0,30.05,SW,216,0.0,2.0,82,0.00,,,0.00,weatherlink.com 1.10,2013-02-05 06:39:00,
2013-02-05 01:54:00,45.8,41.0,30.04,SW,216,0.0,0.0,82,0.00,,,0.00,weatherlink.com 1.10,2013-02-05 06:54:00,
2013-02-05 02:09:00,46.0,41.0,30.04,SW,216,0.0,0.0,83,0.00,,,0.00,weatherlink.com 1.10,2013-02-05 07:09:00,
2013-02-05 02:24:00,45.8,41.0,30.03,SW,216,0.0,0.0,83,0.00,,,0.00,weatherlink.com 1.10,2013-02-05 07:24:00,
2013-02-05 02:39:00,46.4,42.0,30.02,SW,216,0.0,0.0,83,0.00,,,0.00,weatherlink.com 1.10,2013-02-05 07:39:00,
2013-02-05 02:55:00,46.7,42.0,30.03,SW,216,0.0,0.0,84,0.00,,,0.00,weatherlink.com 1.10,2013-02-05 07:55:00,
2013-02-05 03:09:00,46.3,42.0,30.02,SW,216,0.0,0.0,85,0.00,,,0.00,weatherlink.com 1.10,2013-02-05 08:09:00,
2013-02-05 03:24:00,46.1,43.0,30.02,SW,216,0.0,0.0,87,0.00,,,0.00,weatherlink.com 1.10,2013-02-05 08:24:00,
2013-02-05 03:39:00,45.8,43.0,30.02,SW,216,0.0,0.0,88,0.00,,,0.00,weatherlink.com 1.10,2013-02-05 08:39:00,
2013-02-05 03:54:00,45.6,43.0,30.01,SW,216,0.0,0.0,89,0.00,,,0.00,weatherlink.com 1.10,2013-02-05 08:54:00,
2013-02-05 04:09:00,45.2,42.0,30.02,SW,216,0.0,0.0,89,0.00,,,0.00,weatherlink.com 1.10,2013-02-05 09:09:00,
2013-02-05 04:24:00,45.1,42.0,30.01,SW,216,0.0,1.0,90,0.00,,,0.00,weatherlink.com 1.10,2013-02-05 09:24:00,
2013-02-05 04:40:00,45.1,42.0,30.02,SW,216,0.0,1.0,90,0.00,,,0.00,weatherlink.com 1.10,2013-02-05 09:40:00,
2013-02-05 04:55:00,45.8,43.0,30.01,SW,216,0.0,0.0,90,0.00,,,0.00,weatherlink.com 1.10,2013-02-05 09:55:00,
2013-02-05 05:10:00,46.0,43.0,30.02,SW,216,0.0,3.0,90,0.00,,,0.00,weatherlink.com 1.10,2013-02-05 10:10:00,
2013-02-05 05:25:00,45.8,43.0,30.02,SW,216,0.0,0.0,90,0.00,,,0.00,weatherlink.com 1.10,2013-02-05 10:25:00,
2013-02-05 05:40:00,46.0,43.0,30.02,SW,216,0.0,0.0,90,0.00,,,0.00,weatherlink.com 1.10,2013-02-05 10:40:00,
2013-02-05 05:55:00,45.8,43.0,30.02,SW,216,0.0,0.0,90,0.00,,,0.00,weatherlink.com 1.10,2013-02-05 10:55:00,
2013-02-05 06:10:00,46.1,43.0,30.02,SW,216,0.0,2.0,90,0.00,,,0.00,weatherlink.com 1.10,2013-02-05 11:10:00,
2013-02-05 06:25:00,45.6,43.0,30.03,SW,216,0.0,1.0,91,0.00,,,0.00,weatherlink.com 1.10,2013-02-05 11:25:00,
2013-02-05 06:40:00,45.8,43.0,30.04,SW,216,0.0,0.0,91,0.00,,,0.00,weatherlink.com 1.10,2013-02-05 11:40:00,
2013-02-05 06:55:00,45.8,43.0,30.04,SW,216,0.0,1.0,91,0.00,,,0.00,weatherlink.com 1.10,2013-02-05 11:55:00,
2013-02-05 07:10:00,45.5,43.0,30.04,SW,216,0.0,2.0,91,0.00,,,0.00,weatherlink.com 1.10,2013-02-05 12:10:00,
2013-02-05 07:25:00,45.0,43.0,30.06,SW,216,0.0,2.0,92,0.00,,,0.00,weatherlink.com 1.10,2013-02-05 12:25:00,
2013-02-05 07:40:00,45.2,43.0,30.07,SW,216,0.0,1.0,92,0.00,,,0.00,weatherlink.com 1.10,2013-02-05 12:40:00,
2013-02-05 07:55:00,46.1,44.0,30.07,SW,216,0.0,0.0,93,0.00,,,0.00,weatherlink.com 1.10,2013-02-05 12:55:00,
2013-02-05 08:10:00,47.3,45.0,30.07,SW,216,0.0,1.0,92,0.00,,,0.00,weatherlink.com 1.10,2013-02-05 13:10:00,
2013-02-05 08:25:00,47.8,45.0,30.07,SW,216,0.0,4.0,91,0.00,,,0.00,weatherlink.com 1.10,2013-02-05 13:25:00,
2013-02-05 08:40:00,48.6,46.0,30.07,SW,216,0.0,4.0,89,0.00,,,0.00,weatherlink.com 1.10,2013-02-05 13:40:00,
2013-02-05 08:55:00,50.0,47.0,30.07,SW,216,5.0,7.0,88,0.00,,,0.00,weatherlink.com 1.10,2013-02-05 13:55:00,
2013-02-05 09:10:00,50.6,46.0,30.07,SW,216,5.0,7.0,85,0.00,,,0.00,weatherlink.com 1.10,2013-02-05 14:10:00,
2013-02-05 09:25:00,52.6,47.0,30.09,WSW,253,6.0,12.0,82,0.00,,,0.00,weatherlink.com 1.10,2013-02-05 14:25:00,
2013-02-05 09:40:00,54.2,48.0,30.09,West,260,10.0,13.0,79,0.00,,,0.00,weatherlink.com 1.10,2013-02-05 14:40:00,
2013-02-05 09:55:00,55.1,48.0,30.09,West,271,9.0,14.0,76,0.00,,,0.00,weatherlink.com 1.10,2013-02-05 14:55:00,
2013-02-05 10:10:00,55.5,48.0,30.09,West,265,8.0,12.0,76,0.00,,,0.00,weatherlink.com 1.10,2013-02-05 15:10:00,
2013-02-05 10:25:00,56.4,49.0,30.08,West,263,9.0,15.0,75,0.00,,,0.00,weatherlink.com 1.10,2013-02-05 15:25:00,
2013-02-05 10:40:00,57.4,49.0,30.08,West,267,6.0,15.0,73,0.00,,,0.00,weatherlink.com 1.10,2013-02-05 15:40:00,
2013-02-05 10:55:00,58.2,49.0,30.07,West,275,10.0,14.0,71,0.00,,,0.00,weatherlink.com 1.10,2013-02-05 15:55:00,
2013-02-05 11:10:00,59.1,49.0,30.07,West,261,1.0,11.0,70,0.00,,,0.00,weatherlink.com 1.10,2013-02-05 16:10:00,
2013-02-05 11:25:00,60.2,50.0,30.06,West,266,5.0,10.0,68,0.00,,,0.00,weatherlink.com 1.10,2013-02-05 16:25:00,
2013-02-05 11:41:00,61.0,49.0,30.06,WSW,238,11.0,17.0,64,0.00,,,0.00,weatherlink.com 1.10,2013-02-05 16:41:00,
2013-02-05 11:56:00,61.8,49.0,30.05,WSW,248,7.0,15.0,63,0.00,,,0.00,weatherlink.com 1.10,2013-02-05 16:56:00,
2013-02-05 12:11:00,62.2,48.0,30.04,WSW,254,12.0,16.0,61,0.00,,,0.00,weatherlink.com 1.10,2013-02-05 17:11:00,
2013-02-05 12:26:00,62.3,48.0,30.04,WSW,254,9.0,17.0,59,0.00,,,0.00,weatherlink.com 1.10,2013-02-05 17:26:00,
2013-02-05 12:41:00,63.0,48.0,30.03,West,269,8.0,17.0,59,0.00,,,0.00,weatherlink.com 1.10,2013-02-05 17:41:00,
2013-02-05 12:56:00,63.4,48.0,30.02,SW,218,11.0,18.0,57,0.00,,,0.00,weatherlink.com 1.10,2013-02-05 17:56:00,
2013-02-05 13:11:00,63.9,48.0,30.01,WSW,237,10.0,14.0,56,0.00,,,0.00,weatherlink.com 1.10,2013-02-05 18:11:00,
2013-02-05 13:26:00,64.1,47.0,30.00,WSW,249,9.0,16.0,55,0.00,,,0.00,weatherlink.com 1.10,2013-02-05 18:26:00,
2013-02-05 13:41:00,64.8,47.0,29.99,SW,225,7.0,13.0,53,0.00,,,0.00,weatherlink.com 1.10,2013-02-05 18:41:00,
2013-02-05 13:56:00,65.1,47.0,29.98,WSW,244,8.0,14.0,53,0.00,,,0.00,weatherlink.com 1.10,2013-02-05 18:56:00,
2013-02-05 14:11:00,64.9,47.0,29.98,WSW,250,8.0,16.0,52,0.00,,,0.00,weatherlink.com 1.10,2013-02-05 19:11:00,
2013-02-05 14:26:00,65.4,47.0,29.98,SW,229,8.0,15.0,51,0.00,,,0.00,weatherlink.com 1.10,2013-02-05 19:26:00,
2013-02-05 14:41:00,66.2,47.0,29.97,WSW,254,13.0,15.0,50,0.00,,,0.00,weatherlink.com 1.10,2013-02-05 19:41:00,
2013-02-05 14:56:00,64.4,50.0,29.97,SSW,212,8.0,13.0,59,0.00,,,0.00,weatherlink.com 1.10,2013-02-05 19:56:00,
2013-02-05 15:11:00,63.2,51.0,29.97,SSW,198,14.0,17.0,64,0.00,,,0.00,weatherlink.com 1.10,2013-02-05 20:11:00,
2013-02-05 15:26:00,61.7,51.0,29.97,SSW,213,14.0,22.0,67,0.00,,,0.00,weatherlink.com 1.10,2013-02-05 20:26:00,
2013-02-05 15:41:00,60.7,51.0,29.97,SSW,203,12.0,21.0,70,0.00,,,0.00,weatherlink.com 1.10,2013-02-05 20:41:00,
2013-02-05 15:56:00,60.3,52.0,29.98,SSW,198,8.0,16.0,73,0.00,,,0.00,weatherlink.com 1.10,2013-02-05 20:56:00,
2013-02-05 16:11:00,60.8,52.0,29.97,SW,222,13.0,18.0,72,0.00,,,0.00,weatherlink.com 1.10,2013-02-05 21:11:00,
2013-02-05 16:26:00,61.1,51.0,29.97,SSW,213,9.0,16.0,70,0.00,,,0.00,weatherlink.com 1.10,2013-02-05 21:26:00,
2013-02-05 16:41:00,61.0,52.0,29.97,SSW,209,11.0,14.0,71,0.00,,,0.00,weatherlink.com 1.10,2013-02-05 21:41:00,
2013-02-05 16:56:00,60.6,51.0,29.98,SW,223,11.0,18.0,71,0.00,,,0.00,weatherlink.com 1.10,2013-02-05 21:56:00,
2013-02-05 17:11:00,60.4,52.0,29.98,SW,225,12.0,16.0,73,0.00,,,0.00,weatherlink.com 1.10,2013-02-05 22:11:00,
2013-02-05 17:26:00,59.8,51.0,29.98,SW,228,9.0,15.0,73,0.00,,,0.00,weatherlink.com 1.10,2013-02-05 22:26:00,
2013-02-05 17:41:00,59.4,51.0,29.98,WSW,242,5.0,14.0,74,0.00,,,0.00,weatherlink.com 1.10,2013-02-05 22:41:00,
2013-02-05 17:56:00,58.6,51.0,29.98,SW,228,9.0,13.0,76,0.00,,,0.00,weatherlink.com 1.10,2013-02-05 22:56:00,
2013-02-05 18:11:00,57.9,51.0,29.98,SW,222,8.0,15.0,78,0.00,,,0.00,weatherlink.com 1.10,2013-02-05 23:11:00,
2013-02-05 18:26:00,57.4,51.0,29.99,SW,225,6.0,11.0,80,0.00,,,0.00,weatherlink.com 1.10,2013-02-05 23:26:00,
2013-02-05 18:41:00,57.0,51.0,29.99,SW,232,11.0,11.0,81,0.00,,,0.00,weatherlink.com 1.10,2013-02-05 23:41:00,
2013-02-05 18:56:00,56.9,52.0,30.00,SW,229,9.0,14.0,82,0.00,,,0.00,weatherlink.com 1.10,2013-02-05 23:56:00,
2013-02-05 19:11:00,56.7,51.0,30.00,SW,234,7.0,11.0,82,0.00,,,0.00,weatherlink.com 1.10,2013-02-06 00:11:00,
2013-02-05 19:26:00,56.4,51.0,30.00,WSW,237,6.0,11.0,83,0.00,,,0.00,weatherlink.com 1.10,2013-02-06 00:26:00,
2013-02-05 19:41:00,56.1,51.0,30.00,SW,236,6.0,10.0,84,0.00,,,0.00,weatherlink.com 1.10,2013-02-06 00:41:00,
2013-02-05 19:56:00,56.0,51.0,30.01,WSW,238,6.0,11.0,84,0.00,,,0.00,weatherlink.com 1.10,2013-02-06 00:56:00,
2013-02-05 20:11:00,56.2,52.0,30.00,SW,236,8.0,10.0,84,0.00,,,0.00,weatherlink.com 1.10,2013-02-06 01:11:00,
2013-02-05 20:26:00,56.3,51.0,30.01,SW,232,6.0,12.0,82,0.00,,,0.00,weatherlink.com 1.10,2013-02-06 01:26:00,
2013-02-05 20:41:00,56.3,51.0,30.01,SW,234,8.0,13.0,82,0.00,,,0.00,weatherlink.com 1.10,2013-02-06 01:41:00,
2013-02-05 20:56:00,55.9,51.0,30.02,WSW,238,8.0,9.0,82,0.00,,,0.00,weatherlink.com 1.10,2013-02-06 01:56:00,
2013-02-05 21:11:00,55.5,50.0,30.02,WSW,239,5.0,9.0,82,0.00,,,0.00,weatherlink.com 1.10,2013-02-06 02:11:00,
2013-02-05 21:26:00,55.3,50.0,30.02,WSW,239,5.0,9.0,83,0.00,,,0.00,weatherlink.com 1.10,2013-02-06 02:26:00,
2013-02-05 21:41:00,55.2,51.0,30.02,WSW,239,4.0,8.0,84,0.00,,,0.00,weatherlink.com 1.10,2013-02-06 02:41:00,
2013-02-05 21:56:00,55.0,50.0,30.02,WSW,239,5.0,8.0,84,0.00,,,0.00,weatherlink.com 1.10,2013-02-06 02:56:00,
2013-02-05 22:11:00,54.9,51.0,30.03,WSW,239,4.0,7.0,85,0.00,,,0.00,weatherlink.com 1.10,2013-02-06 03:11:00,
2013-02-05 22:26:00,54.6,50.0,30.03,WSW,239,6.0,7.0,84,0.00,,,0.00,weatherlink.com 1.10,2013-02-06 03:26:00,
2013-02-05 22:41:00,54.4,50.0,30.03,WSW,239,1.0,6.0,85,0.00,,,0.00,weatherlink.com 1.10,2013-02-06 03:41:00,
2013-02-05 22:56:00,54.1,50.0,30.04,WSW,239,0.0,6.0,85,0.00,,,0.00,weatherlink.com 1.10,2013-02-06 03:56:00,
2013-02-05 23:11:00,53.8,50.0,30.04,WSW,239,3.0,5.0,86,0.00,,,0.00,weatherlink.com 1.10,2013-02-06 04:11:00,
2013-02-05 23:27:00,53.6,50.0,30.03,WSW,239,0.0,3.0,86,0.00,,,0.00,weatherlink.com 1.10,2013-02-06 04:27:00,
2013-02-05 23:41:00,53.5,50.0,30.03,WSW,239,2.0,4.0,87,0.00,,,0.00,weatherlink.com 1.10,2013-02-06 04:41:00,
2013-02-05 23:56:00,53.3,50.0,30.03,WSW,239,0.0,6.0,87,0.00,,,0.00,weatherlink.com 1.10,2013-02-06 04:56:00,